createdAt,value
2023-01-30T00:00:36.983Z,11.20
2023-01-30T00:03:08.591Z,12.40
2023-01-30T00:05:39.958Z,12.00
2023-01-30T00:08:11.370Z,12.00
2023-01-30T00:10:43.132Z,11.40
2023-01-30T00:13:16.053Z,10.30
2023-01-30T00:15:47.505Z,10.20
2023-01-30T00:18:19.098Z,11.60
2023-01-30T00:20:50.704Z,10.10
2023-01-30T00:23:22.157Z,12.10
2023-01-30T00:25:53.581Z,11.60
2023-01-30T00:28:25.514Z,10.30
2023-01-30T00:30:58.111Z,11.30
2023-01-30T00:33:30.486Z,10.50
2023-01-30T00:36:04.587Z,10.40
2023-01-30T00:38:36.073Z,10.60
2023-01-30T00:41:07.829Z,10.10
2023-01-30T00:43:56.894Z,9.10
2023-01-30T00:46:49.940Z,9.60
2023-01-30T00:49:21.633Z,8.70
2023-01-30T00:51:53.110Z,10.60
2023-01-30T00:54:24.930Z,9.90
2023-01-30T00:56:56.453Z,11.40
2023-01-30T00:59:27.899Z,11.50
2023-01-30T01:01:59.475Z,13.80
2023-01-30T01:04:31.157Z,12.90
2023-01-30T01:07:02.616Z,13.50
2023-01-30T01:09:33.945Z,13.10
2023-01-30T01:12:06.033Z,12.90
2023-01-30T01:14:37.453Z,13.40
2023-01-30T01:17:09.245Z,13.60
2023-01-30T01:19:40.696Z,12.90
2023-01-30T01:22:12.223Z,13.70
2023-01-30T01:24:43.615Z,11.90
2023-01-30T01:27:15.022Z,13.90
2023-01-30T01:29:46.443Z,12.10
2023-01-30T01:32:18.034Z,12.40
2023-01-30T01:34:49.492Z,11.40
2023-01-30T01:37:20.960Z,12.50
2023-01-30T01:40:09.980Z,11.30
2023-01-30T01:42:42.269Z,11.20
2023-01-30T01:45:21.619Z,10.90
2023-01-30T01:48:04.262Z,12.60
2023-01-30T01:50:43.974Z,11.60
2023-01-30T01:53:19.190Z,10.20
2023-01-30T01:55:54.009Z,11.20
2023-01-30T01:58:31.229Z,10.80
2023-01-30T02:01:03.467Z,11.40
2023-01-30T02:03:39.283Z,11.50
2023-01-30T02:06:12.583Z,11.30
2023-01-30T02:08:48.143Z,13.10
2023-01-30T02:14:42.130Z,11.10
2023-01-30T02:17:13.876Z,12.10
2023-01-30T02:19:53.268Z,11.60
2023-01-30T02:22:57.320Z,11.60
2023-01-30T02:26:01.527Z,12.00
2023-01-30T02:28:59.465Z,12.30
2023-01-30T02:31:40.612Z,11.90
2023-01-30T02:34:32.683Z,11.30
2023-01-30T02:37:16.433Z,12.10
2023-01-30T02:40:01.516Z,11.40
2023-01-30T02:42:39.348Z,12.40
2023-01-30T02:45:20.712Z,13.20
2023-01-30T02:47:57.696Z,13.00
2023-01-30T02:50:32.513Z,13.50
2023-01-30T02:55:34.598Z,13.10
2023-01-30T02:58:07.199Z,12.90
2023-01-30T03:01:04.477Z,13.90
2023-01-30T03:03:53.960Z,14.20
2023-01-30T03:06:44.239Z,13.00
2023-01-30T03:09:31.682Z,14.10
2023-01-30T03:12:11.219Z,12.90
2023-01-30T03:14:49.337Z,13.90
2023-01-30T03:17:25.079Z,13.10
2023-01-30T03:19:57.900Z,12.70
2023-01-30T03:22:29.666Z,12.60
2023-01-30T03:25:01.325Z,12.40
2023-01-30T03:27:35.215Z,13.10
2023-01-30T03:30:08.258Z,10.90
2023-01-30T03:32:39.783Z,12.50
2023-01-30T03:35:12.381Z,13.00
2023-01-30T03:37:43.930Z,10.90
2023-01-30T03:40:18.741Z,10.90
2023-01-30T03:45:20.320Z,10.60
2023-01-30T03:47:52.248Z,10.40
2023-01-30T03:50:23.862Z,10.60
2023-01-30T03:52:55.699Z,10.40
2023-01-30T03:55:27.381Z,9.20
2023-01-30T03:58:00.155Z,10.00
2023-01-30T04:00:31.945Z,10.00
2023-01-30T04:03:03.596Z,9.60
2023-01-30T04:05:35.237Z,9.30
2023-01-30T04:08:07.081Z,9.40
2023-01-30T04:10:38.656Z,9.00
2023-01-30T04:13:10.564Z,9.80
2023-01-30T04:15:42.195Z,8.90
2023-01-30T04:18:13.927Z,9.00
2023-01-30T04:20:45.476Z,9.50
2023-01-30T04:23:17.032Z,8.70
2023-01-30T04:25:50.944Z,8.40
2023-01-30T04:28:22.547Z,9.20
2023-01-30T04:30:55.858Z,8.10
2023-01-30T04:33:27.453Z,8.80
2023-01-30T04:36:06.839Z,9.70
2023-01-30T04:38:44.675Z,8.60
2023-01-30T04:41:22.779Z,8.50
2023-01-30T04:44:03.114Z,9.20
2023-01-30T04:46:34.637Z,9.00
2023-01-30T04:49:06.326Z,8.80
2023-01-30T04:51:39.483Z,9.70
2023-01-30T04:54:11.105Z,8.90
2023-01-30T04:56:42.677Z,9.40
2023-01-30T04:59:16.270Z,9.60
2023-01-30T05:01:47.966Z,10.50
2023-01-30T05:04:19.591Z,10.10
2023-01-30T05:06:51.470Z,9.80
2023-01-30T05:09:22.996Z,10.30
2023-01-30T05:11:54.490Z,8.80
2023-01-30T05:14:26.102Z,9.20
2023-01-30T05:16:57.682Z,10.00
2023-01-30T05:19:30.036Z,9.30
2023-01-30T05:22:01.798Z,10.00
2023-01-30T05:24:33.397Z,9.50
2023-01-30T05:27:06.682Z,10.50
2023-01-30T05:29:38.281Z,10.40
2023-01-30T05:32:12.531Z,10.30
2023-01-30T05:34:44.217Z,10.20
2023-01-30T05:37:16.130Z,9.60
2023-01-30T05:39:47.864Z,10.30
2023-01-30T05:42:19.414Z,10.90
2023-01-30T05:44:50.987Z,10.50
2023-01-30T05:47:22.684Z,10.00
2023-01-30T05:49:55.648Z,9.10
2023-01-30T05:52:27.262Z,10.10
2023-01-30T05:54:58.943Z,10.40
2023-01-30T05:57:30.531Z,10.70
2023-01-30T06:00:02.135Z,9.30
2023-01-30T06:02:33.778Z,9.30
2023-01-30T06:05:05.492Z,9.70
2023-01-30T06:07:37.121Z,9.90
2023-01-30T06:10:10.115Z,9.70
2023-01-30T06:12:41.730Z,9.30
2023-01-30T06:15:15.224Z,9.70
2023-01-30T06:17:47.510Z,10.10
2023-01-30T06:20:19.521Z,9.90
2023-01-30T06:22:51.203Z,10.90
2023-01-30T06:25:22.766Z,10.90
2023-01-30T06:27:54.337Z,10.50
2023-01-30T06:30:26.072Z,11.30
2023-01-30T06:32:57.674Z,10.20
2023-01-30T06:35:29.645Z,11.70
2023-01-30T06:38:01.512Z,10.90
2023-01-30T06:40:33.580Z,10.70
2023-01-30T06:43:05.958Z,11.50
2023-01-30T06:45:37.524Z,8.80
2023-01-30T06:48:10.301Z,11.70
2023-01-30T06:50:41.921Z,9.90
2023-01-30T06:53:14.515Z,11.10
2023-01-30T06:55:46.113Z,10.80
2023-01-30T06:58:18.242Z,12.20
2023-01-30T07:00:49.962Z,10.50
2023-01-30T07:03:21.928Z,11.80
2023-01-30T07:05:53.498Z,12.10
2023-01-30T07:08:25.295Z,12.10
2023-01-30T07:10:58.701Z,11.10
2023-01-30T07:13:30.235Z,11.40
2023-01-30T07:16:01.928Z,10.80
2023-01-30T07:18:34.299Z,10.30
2023-01-30T07:21:06.089Z,11.60
2023-01-30T07:23:37.826Z,11.90
2023-01-30T07:26:10.054Z,10.40
2023-01-30T07:28:41.779Z,11.50
2023-01-30T07:31:13.713Z,12.20
2023-01-30T07:33:45.394Z,12.20
2023-01-30T07:36:17.276Z,11.40
2023-01-30T07:38:51.532Z,13.60
2023-01-30T07:41:23.178Z,13.40
2023-01-30T07:43:55.013Z,12.80
2023-01-30T07:46:26.750Z,14.10
2023-01-30T07:48:59.880Z,15.10
2023-01-30T07:51:32.723Z,14.90
2023-01-30T07:54:04.448Z,13.90
2023-01-30T07:56:36.515Z,13.90
2023-01-30T07:59:08.112Z,14.90
2023-01-30T08:01:40.072Z,14.60
2023-01-30T08:04:11.862Z,13.70
2023-01-30T08:06:43.677Z,15.10
2023-01-30T08:09:15.482Z,14.70
2023-01-30T08:11:47.085Z,15.40
2023-01-30T08:14:19.113Z,14.90
2023-01-30T08:16:52.711Z,13.90
2023-01-30T08:19:24.445Z,15.00
2023-01-30T08:21:57.651Z,14.10
2023-01-30T08:24:29.482Z,14.00
2023-01-30T08:27:01.117Z,13.60
2023-01-30T08:29:33.192Z,14.10
2023-01-30T08:32:05.328Z,14.40
2023-01-30T08:34:37.716Z,15.90
2023-01-30T08:37:09.383Z,15.90
2023-01-30T08:39:41.107Z,14.40
2023-01-30T08:42:12.771Z,15.10
2023-01-30T08:44:44.648Z,14.60
2023-01-30T08:47:16.346Z,15.60
2023-01-30T08:49:48.061Z,16.50
2023-01-30T08:52:19.713Z,16.70
2023-01-30T08:54:51.520Z,15.90
2023-01-30T08:57:23.224Z,15.90
2023-01-30T08:59:55.207Z,16.10
2023-01-30T09:02:27.191Z,16.90
2023-01-30T09:04:58.922Z,16.00
2023-01-30T09:07:30.564Z,17.00
2023-01-30T09:10:02.642Z,16.50
2023-01-30T09:12:34.624Z,17.20
2023-01-30T09:15:07.317Z,16.70
2023-01-30T09:17:39.603Z,17.40
2023-01-30T09:20:14.661Z,17.30
2023-01-30T09:22:46.360Z,17.20
2023-01-30T09:25:18.578Z,17.30
2023-01-30T09:27:52.795Z,17.60
2023-01-30T09:30:24.810Z,16.20
2023-01-30T09:32:56.516Z,16.20
2023-01-30T09:35:28.869Z,15.00
2023-01-30T09:38:01.828Z,14.90
2023-01-30T09:40:40.154Z,14.80
2023-01-30T09:43:22.777Z,12.30
2023-01-30T09:46:26.091Z,14.80
2023-01-30T09:49:08.030Z,15.30
2023-01-30T09:51:57.682Z,14.90
2023-01-30T09:54:33.877Z,14.50
2023-01-30T09:57:22.205Z,14.70
2023-01-30T10:00:04.530Z,13.20
2023-01-30T10:02:49.161Z,14.50
2023-01-30T10:05:21.457Z,14.30
2023-01-30T10:08:13.586Z,13.90
2023-01-30T10:11:04.326Z,13.50
2023-01-30T10:16:37.915Z,13.80
2023-01-30T10:19:36.256Z,15.70
2023-01-30T10:22:18.758Z,16.70
2023-01-30T10:25:01.104Z,14.90
2023-01-30T10:27:33.759Z,15.50
2023-01-30T10:30:09.867Z,15.10
2023-01-30T10:32:48.667Z,14.80
2023-01-30T10:35:26.184Z,13.90
2023-01-30T10:38:06.487Z,13.70
2023-01-30T10:40:44.238Z,13.40
2023-01-30T10:43:22.551Z,13.40
2023-01-30T10:46:03.288Z,11.70
2023-01-30T10:48:54.978Z,12.20
2023-01-30T10:51:46.469Z,12.70
2023-01-30T10:54:25.158Z,14.00
2023-01-30T10:57:05.524Z,14.80
2023-01-30T10:59:51.469Z,12.30
2023-01-30T11:02:37.867Z,13.40
2023-01-30T11:05:17.803Z,14.30
2023-01-30T11:07:51.189Z,15.20
2023-01-30T11:10:25.200Z,15.00
2023-01-30T11:13:00.613Z,15.20
2023-01-30T11:15:46.258Z,13.20
2023-01-30T11:21:20.286Z,13.30
2023-01-30T11:23:52.698Z,14.50
2023-01-30T11:26:34.725Z,13.80
2023-01-30T11:29:30.887Z,13.60
2023-01-30T11:32:06.136Z,13.80
2023-01-30T11:34:38.356Z,14.50
2023-01-30T11:37:29.262Z,15.90
2023-01-30T11:40:09.466Z,13.80
2023-01-30T11:42:47.965Z,13.90
2023-01-30T11:45:21.674Z,14.10
2023-01-30T11:48:02.190Z,11.40
2023-01-30T11:50:41.636Z,13.40
2023-01-30T11:53:41.736Z,13.50
2023-01-30T11:56:23.139Z,13.10
2023-01-30T11:59:00.204Z,13.20
2023-01-30T12:01:34.581Z,14.80
2023-01-30T12:04:10.843Z,15.20
2023-01-30T12:06:45.463Z,12.90
2023-01-30T12:09:42.629Z,13.80
2023-01-30T12:12:32.101Z,13.10
2023-01-30T12:15:24.590Z,11.40
2023-01-30T12:18:06.400Z,11.30
2023-01-30T12:20:48.153Z,12.40
2023-01-30T12:23:29.095Z,11.40
2023-01-30T12:26:07.160Z,14.50
2023-01-30T12:28:48.545Z,12.40
2023-01-30T12:31:27.903Z,13.20
2023-01-30T12:33:59.532Z,12.30
2023-01-30T12:36:43.133Z,13.30
2023-01-30T12:39:37.027Z,12.90
2023-01-30T12:42:26.073Z,12.00
2023-01-30T12:45:16.065Z,12.80
2023-01-30T12:48:10.257Z,13.90
2023-01-30T12:50:57.200Z,12.30
2023-01-30T12:53:42.785Z,12.30
2023-01-30T12:56:50.203Z,13.60
2023-01-30T12:59:28.070Z,11.60
2023-01-30T13:02:20.945Z,13.30
2023-01-30T13:05:06.772Z,13.50
2023-01-30T13:07:47.255Z,11.80
2023-01-30T13:10:30.171Z,12.30
2023-01-30T13:13:13.446Z,11.60
2023-01-30T13:15:53.326Z,12.40
2023-01-30T13:18:33.858Z,10.70
2023-01-30T13:21:13.064Z,11.80
2023-01-30T13:23:58.958Z,12.10
2023-01-30T13:26:35.773Z,12.20
2023-01-30T13:29:14.077Z,10.80
2023-01-30T13:31:52.139Z,12.00
2023-01-30T13:34:33.134Z,11.10
2023-01-30T13:37:09.163Z,10.80
2023-01-30T13:39:46.400Z,13.00
2023-01-30T13:42:27.278Z,11.70
2023-01-30T13:45:00.235Z,11.20
2023-01-30T13:47:45.143Z,12.40
2023-01-30T13:50:34.974Z,13.00
2023-01-30T13:53:12.944Z,11.90
2023-01-30T13:55:53.613Z,14.00
2023-01-30T13:58:44.453Z,12.50
2023-01-30T14:01:16.825Z,12.40
2023-01-30T14:03:48.504Z,13.40
2023-01-30T14:06:40.951Z,11.70
2023-01-30T14:09:33.496Z,12.00
2023-01-30T14:12:07.366Z,11.30
2023-01-30T14:14:41.715Z,11.40
2023-01-30T14:17:19.180Z,12.80
2023-01-30T14:19:59.826Z,12.40
2023-01-30T14:22:38.643Z,12.30
2023-01-30T14:25:46.707Z,14.00
2023-01-30T14:28:55.849Z,16.10
2023-01-30T14:31:56.947Z,15.60
2023-01-30T14:35:14.315Z,14.80
2023-01-30T14:38:11.589Z,14.30
2023-01-30T14:41:07.136Z,15.20
2023-01-30T14:46:37.531Z,15.20
2023-01-30T14:49:32.937Z,15.90
2023-01-30T14:52:06.728Z,17.00
2023-01-30T14:54:52.716Z,14.60
2023-01-30T14:57:33.045Z,13.50
2023-01-30T15:00:18.546Z,14.40
2023-01-30T15:02:58.973Z,15.00
2023-01-30T15:05:35.686Z,14.60
2023-01-30T15:08:13.533Z,16.50
2023-01-30T15:11:10.291Z,16.10
2023-01-30T15:13:59.452Z,17.10
2023-01-30T15:17:03.347Z,16.30
2023-01-30T15:20:02.101Z,16.10
2023-01-30T15:22:45.029Z,13.20
2023-01-30T15:25:37.553Z,14.00
2023-01-30T15:28:22.376Z,13.00
2023-01-30T15:31:05.940Z,15.00
2023-01-30T15:33:47.125Z,14.70
2023-01-30T15:36:29.479Z,15.10
2023-01-30T15:39:04.199Z,16.80
2023-01-30T15:41:43.129Z,14.60
2023-01-30T15:44:41.187Z,14.30
2023-01-30T15:47:33.374Z,13.10
2023-01-30T15:50:08.562Z,13.20
2023-01-30T15:52:46.769Z,13.70
2023-01-30T15:55:26.305Z,14.40
2023-01-30T15:58:02.331Z,15.60
2023-01-30T16:00:37.322Z,14.20
2023-01-30T16:03:16.168Z,15.70
2023-01-30T16:05:52.906Z,15.80
2023-01-30T16:08:27.317Z,23.70
2023-01-30T16:11:01.021Z,16.20
2023-01-30T16:13:35.699Z,16.10
2023-01-30T16:16:13.821Z,16.00
2023-01-30T16:18:51.651Z,16.70
2023-01-30T16:21:26.891Z,16.40
2023-01-30T16:24:03.502Z,16.20
2023-01-30T16:26:37.001Z,16.40
2023-01-30T16:29:15.708Z,15.00
2023-01-30T16:31:52.008Z,18.10
2023-01-30T16:34:32.411Z,16.00
2023-01-30T16:37:08.341Z,14.10
2023-01-30T16:39:41.734Z,14.90
2023-01-30T16:42:27.077Z,15.20
2023-01-30T16:45:22.608Z,16.90
2023-01-30T16:47:54.285Z,14.80
2023-01-30T16:50:29.325Z,15.60
2023-01-30T16:53:03.093Z,16.00
2023-01-30T16:55:36.120Z,14.10
2023-01-30T16:58:08.120Z,13.80
2023-01-30T17:00:43.317Z,16.00
2023-01-30T17:03:27.161Z,14.90
2023-01-30T17:06:02.700Z,14.00
2023-01-30T17:08:52.862Z,13.10
2023-01-30T17:11:37.831Z,14.10
2023-01-30T17:14:26.688Z,13.60
2023-01-30T17:17:07.973Z,15.60
2023-01-30T17:19:40.279Z,13.00
2023-01-30T17:22:24.768Z,14.80
2023-01-30T17:25:00.547Z,13.50
2023-01-30T17:27:37.761Z,13.10
2023-01-30T17:30:18.189Z,14.60
2023-01-30T17:32:51.464Z,13.00
2023-01-30T17:35:24.007Z,12.50
2023-01-30T17:38:04.760Z,13.30
2023-01-30T17:40:40.448Z,13.30
2023-01-30T17:43:16.159Z,13.50
2023-01-30T17:45:48.844Z,15.10
2023-01-30T17:48:24.807Z,14.60
2023-01-30T17:50:56.975Z,14.20
2023-01-30T17:53:30.180Z,14.10
2023-01-30T17:56:03.419Z,13.10
2023-01-30T17:58:37.069Z,15.10
2023-01-30T18:01:10.339Z,16.00
2023-01-30T18:03:45.073Z,14.80
2023-01-30T18:06:20.472Z,15.90
2023-01-30T18:08:54.272Z,15.10
2023-01-30T18:11:27.562Z,14.30
2023-01-30T18:14:02.110Z,11.50
2023-01-30T18:16:36.352Z,13.10
2023-01-30T18:19:14.287Z,11.40
2023-01-30T18:21:48.070Z,13.10
2023-01-30T18:24:21.309Z,12.10
2023-01-30T18:26:58.442Z,11.90
2023-01-30T18:29:36.710Z,12.00
2023-01-30T18:32:11.317Z,10.40
2023-01-30T18:34:44.876Z,11.50
2023-01-30T18:37:18.023Z,10.20
2023-01-30T18:39:51.301Z,11.70
2023-01-30T18:42:24.824Z,11.80
2023-01-30T18:44:58.917Z,12.50
2023-01-30T18:47:34.575Z,11.70
2023-01-30T18:50:21.308Z,12.10
2023-01-30T18:52:55.072Z,12.30
2023-01-30T18:55:31.169Z,12.60
2023-01-30T18:58:05.327Z,13.10
2023-01-30T19:00:39.431Z,13.00
2023-01-30T19:03:17.104Z,14.20
2023-01-30T19:05:51.800Z,14.60
2023-01-30T19:08:30.641Z,13.90
2023-01-30T19:11:24.149Z,12.10
2023-01-30T19:13:58.539Z,13.90
2023-01-30T19:16:41.189Z,14.40
2023-01-30T19:19:15.499Z,15.40
2023-01-30T19:21:52.538Z,14.50
2023-01-30T19:24:28.210Z,16.60
2023-01-30T19:27:08.236Z,14.40
2023-01-30T19:29:44.329Z,13.30
2023-01-30T19:32:19.647Z,13.80
2023-01-30T19:35:05.055Z,13.20
2023-01-30T19:37:39.383Z,12.60
2023-01-30T19:40:24.086Z,13.00
2023-01-30T19:43:05.717Z,13.70
2023-01-30T19:45:45.187Z,15.10
2023-01-30T19:48:18.875Z,14.40
2023-01-30T19:50:52.703Z,13.70
2023-01-30T19:53:27.732Z,15.00
2023-01-30T19:56:01.818Z,14.40
2023-01-30T19:58:37.373Z,13.70
2023-01-30T20:01:21.234Z,13.80
2023-01-30T20:03:55.469Z,15.50
2023-01-30T20:06:36.765Z,14.50
2023-01-30T20:09:14.582Z,14.20
2023-01-30T20:11:51.687Z,14.20
2023-01-30T20:14:25.313Z,13.30
2023-01-30T20:16:58.528Z,13.20
2023-01-30T20:19:33.035Z,14.10
2023-01-30T20:22:09.298Z,14.90
2023-01-30T20:24:49.179Z,15.80
2023-01-30T20:27:22.963Z,15.00
2023-01-30T20:29:57.962Z,14.60
2023-01-30T20:32:34.589Z,13.50
2023-01-30T20:35:09.619Z,13.60
2023-01-30T20:37:45.206Z,12.40
2023-01-30T20:40:20.357Z,11.00
2023-01-30T20:42:53.685Z,13.50
2023-01-30T20:45:29.830Z,12.10
2023-01-30T20:48:04.336Z,12.60
2023-01-30T20:50:38.589Z,12.60
2023-01-30T20:53:13.390Z,16.40
2023-01-30T20:58:19.496Z,13.50
2023-01-30T21:00:53.224Z,11.80
2023-01-30T21:03:28.486Z,12.40
2023-01-30T21:06:03.514Z,12.20
2023-01-30T21:08:39.491Z,12.20
2023-01-30T21:11:15.302Z,14.30
2023-01-30T21:13:48.410Z,12.50
2023-01-30T21:16:24.390Z,12.00
2023-01-30T21:19:00.167Z,12.10
2023-01-30T21:21:38.968Z,9.60
2023-01-30T21:24:15.838Z,9.70
2023-01-30T21:26:49.092Z,10.10
2023-01-30T21:29:24.421Z,11.20
2023-01-30T21:31:57.303Z,9.80
2023-01-30T21:34:30.900Z,8.30
2023-01-30T21:37:20.037Z,9.00
2023-01-30T21:40:09.232Z,10.60
2023-01-30T21:42:58.937Z,9.50
2023-01-30T21:45:31.095Z,10.80
2023-01-30T21:48:02.708Z,8.80
2023-01-30T21:50:34.757Z,7.70
2023-01-30T21:53:06.557Z,8.30
2023-01-30T21:55:38.139Z,8.90
2023-01-30T21:58:09.739Z,7.40
2023-01-30T22:00:41.464Z,8.70
2023-01-30T22:03:13.151Z,10.10
2023-01-30T22:05:48.016Z,8.40
2023-01-30T22:10:49.474Z,8.20
2023-01-30T22:13:21.107Z,9.20
2023-01-30T22:15:53.358Z,8.00
2023-01-30T22:18:25.071Z,8.50
2023-01-30T22:21:01.780Z,8.70
2023-01-30T22:23:37.362Z,10.00
2023-01-30T22:26:10.024Z,10.70
2023-01-30T22:28:41.985Z,8.70
2023-01-30T22:31:15.334Z,8.20
2023-01-30T22:33:49.706Z,8.10
2023-01-30T22:36:22.514Z,7.90
2023-01-30T22:38:54.521Z,8.10
2023-01-30T22:41:27.682Z,7.20
2023-01-30T22:44:00.788Z,7.40
2023-01-30T22:46:34.133Z,7.40
2023-01-30T22:49:07.154Z,6.40
2023-01-30T22:51:41.344Z,7.90
2023-01-30T22:54:16.291Z,7.00
2023-01-30T22:56:49.982Z,7.80
2023-01-30T22:59:22.103Z,6.70
2023-01-30T23:01:54.010Z,5.80
2023-01-30T23:04:26.780Z,6.30
2023-01-30T23:06:59.899Z,8.20
2023-01-30T23:09:31.552Z,6.90
2023-01-30T23:12:20.282Z,7.10
2023-01-30T23:14:52.617Z,6.40
2023-01-30T23:17:42.902Z,6.40
2023-01-30T23:20:16.266Z,6.40
2023-01-30T23:22:51.471Z,6.90
2023-01-30T23:25:23.803Z,6.70
2023-01-30T23:27:55.481Z,6.30
2023-01-30T23:30:27.209Z,7.30
2023-01-30T23:32:59.292Z,9.70
2023-01-30T23:35:31.269Z,6.30
2023-01-30T23:38:19.367Z,5.80
2023-01-30T23:40:52.335Z,7.10
2023-01-30T23:43:23.991Z,6.90
2023-01-30T23:45:56.186Z,5.90
2023-01-30T23:48:28.335Z,6.30
2023-01-30T23:51:03.150Z,5.90
2023-01-30T23:56:05.675Z,7.40
2023-01-30T23:58:38.751Z,6.00
